Orbital elements of SL-8 R/B
| Launched | 12 November 1986 |
| Flight ended | – |
| Launch site | Plesetsk Missile and Space Complex, Russia |
| Owner | Commonwealth of Independent States (former USSR) |
| NORAD ID | 17067 |
| Date fetched |
Epoch osculation |
Inc. [°] |
Ecc. | RA asc node [hr] |
Arg Peri. [°] |
Mean anom [°] |
Mean motion [rev/day] |
Abs. mag |
| Date fetched |
Epoch osculation |
Inc. [°] |
Ecc. | RA asc node [hr] |
Arg Peri. [°] |
Mean anom [°] |
Mean motion [rev/day] |
Abs. mag |
| 2026 May 06 17:57 | 2026 May 05 10:02:24 | 82.9426 | 0.00331 | 17.1265 | 239.6781 | 181.2338 | 13.78100 | 5.743 |
| 2026 May 05 17:57 | 2026 May 05 10:02:24 | 82.9426 | 0.00331 | 17.1265 | 239.6781 | 181.2338 | 13.78100 | 5.743 |
| 2026 May 04 17:57 | 2026 Apr 30 11:34:02 | 82.9417 | 0.00329 | 17.3715 | 254.0330 | 181.2338 | 13.78100 | 5.743 |
| 2026 May 03 17:57 | 2026 Apr 30 11:34:02 | 82.9417 | 0.00329 | 17.3715 | 254.0330 | 181.2338 | 13.78100 | 5.743 |
| 2026 May 02 17:57 | 2026 Apr 30 11:34:02 | 82.9417 | 0.00329 | 17.3715 | 254.0330 | 181.2338 | 13.78100 | 5.743 |
| 2026 May 01 17:56 | 2026 Apr 30 11:34:02 | 82.9417 | 0.00329 | 17.3715 | 254.0330 | 181.2338 | 13.78100 | 5.743 |
| 2026 Apr 30 17:56 | 2026 Apr 30 11:34:02 | 82.9417 | 0.00329 | 17.3715 | 254.0330 | 181.2338 | 13.78100 | 5.743 |
| 2026 Apr 29 17:57 | 2026 Apr 24 12:42:07 | 82.9409 | 0.00328 | 17.6671 | 271.4481 | 181.2338 | 13.78100 | 5.743 |
| 2026 Apr 28 17:56 | 2026 Apr 24 12:42:07 | 82.9409 | 0.00328 | 17.6671 | 271.4481 | 181.2338 | 13.78100 | 5.743 |
| 2026 Apr 27 17:58 | 2026 Apr 24 12:42:07 | 82.9409 | 0.00328 | 17.6671 | 271.4481 | 181.2338 | 13.78100 | 5.743 |
| 2026 Apr 26 17:58 | 2026 Apr 24 12:42:07 | 82.9409 | 0.00328 | 17.6671 | 271.4481 | 181.2338 | 13.78100 | 5.743 |
| 2026 Apr 25 17:58 | 2026 Apr 24 12:42:07 | 82.9409 | 0.00328 | 17.6671 | 271.4481 | 181.2338 | 13.78100 | 5.743 |
| 2026 Apr 24 17:59 | 2026 Apr 24 12:42:07 | 82.9409 | 0.00328 | 17.6671 | 271.4481 | 181.2338 | 13.78100 | 5.743 |
| 2026 Apr 23 17:57 | 2026 Apr 19 04:15:50 | 82.9398 | 0.00329 | 17.9330 | 287.0881 | 181.2338 | 13.78100 | 5.743 |
| 2026 Apr 22 17:57 | 2026 Apr 19 04:15:50 | 82.9398 | 0.00329 | 17.9330 | 287.0881 | 181.2338 | 13.78100 | 5.743 |
| 2026 Apr 21 17:57 | 2026 Apr 19 04:15:50 | 82.9398 | 0.00329 | 17.9330 | 287.0881 | 181.2338 | 13.78100 | 5.743 |
| 2026 Apr 20 17:57 | 2026 Apr 19 04:15:50 | 82.9398 | 0.00329 | 17.9330 | 287.0881 | 181.2338 | 13.78100 | 5.743 |
| 2026 Apr 19 17:58 | 2026 Apr 19 04:15:50 | 82.9398 | 0.00329 | 17.9330 | 287.0881 | 181.2338 | 13.78100 | 5.743 |
| 2026 Apr 18 17:56 | 2026 Apr 13 05:22:31 | 82.9393 | 0.00331 | 18.2287 | 304.4236 | 181.2338 | 13.78100 | 5.743 |
| 2026 Apr 16 17:57 | 2026 Apr 13 05:22:31 | 82.9393 | 0.00331 | 18.2287 | 304.4236 | 181.2338 | 13.78100 | 5.743 |
| 2026 Apr 14 17:57 | 2026 Apr 13 05:22:31 | 82.9393 | 0.00331 | 18.2287 | 304.4236 | 181.2338 | 13.78100 | 5.743 |
| 2026 Apr 13 17:57 | 2026 Apr 13 05:22:31 | 82.9393 | 0.00331 | 18.2287 | 304.4236 | 181.2338 | 13.78100 | 5.743 |
| 2026 Apr 12 17:57 | 2026 Apr 08 15:06:19 | 82.9389 | 0.00333 | 18.4569 | 317.6780 | 181.2338 | 13.78100 | 5.743 |
| 2026 Apr 11 17:57 | 2026 Apr 08 15:06:19 | 82.9389 | 0.00333 | 18.4569 | 317.6780 | 181.2338 | 13.78100 | 5.743 |
| 2026 Apr 10 17:58 | 2026 Apr 08 15:06:19 | 82.9389 | 0.00333 | 18.4569 | 317.6780 | 181.2338 | 13.78100 | 5.743 |
| 2026 Apr 09 18:01 | 2026 Apr 08 15:06:19 | 82.9389 | 0.00333 | 18.4569 | 317.6780 | 181.2338 | 13.78100 | 5.743 |